sensor_id;sensor_type;location;lat;lon;timestamp;P1;durP1;ratioP1;P2;durP2;ratioP2
32152;SDS011;18656;50.580;11.392;2023-07-20T00:00:14;23.25;;;13.55;;
32152;SDS011;18656;50.580;11.392;2023-07-20T00:02:42;14.23;;;10.65;;
32152;SDS011;18656;50.580;11.392;2023-07-20T00:05:09;16.08;;;11.90;;
32152;SDS011;18656;50.580;11.392;2023-07-20T00:07:36;13.55;;;10.45;;
32152;SDS011;18656;50.580;11.392;2023-07-20T00:10:03;19.35;;;10.90;;
32152;SDS011;18656;50.580;11.392;2023-07-20T00:12:31;11.75;;;9.57;;
32152;SDS011;18656;50.580;11.392;2023-07-20T00:14:58;21.80;;;11.60;;
32152;SDS011;18656;50.580;11.392;2023-07-20T00:17:25;16.73;;;10.77;;
32152;SDS011;18656;50.580;11.392;2023-07-20T00:19:52;10.43;;;9.15;;
32152;SDS011;18656;50.580;11.392;2023-07-20T00:22:20;13.35;;;10.07;;
32152;SDS011;18656;50.580;11.392;2023-07-20T00:24:47;14.43;;;9.60;;
32152;SDS011;18656;50.580;11.392;2023-07-20T00:27:15;13.02;;;9.90;;
32152;SDS011;18656;50.580;11.392;2023-07-20T00:29:43;16.38;;;10.70;;
32152;SDS011;18656;50.580;11.392;2023-07-20T00:32:10;16.25;;;9.02;;
32152;SDS011;18656;50.580;11.392;2023-07-20T00:34:37;12.05;;;9.32;;
32152;SDS011;18656;50.580;11.392;2023-07-20T00:37:04;16.77;;;10.40;;
32152;SDS011;18656;50.580;11.392;2023-07-20T00:39:31;17.20;;;9.50;;
32152;SDS011;18656;50.580;11.392;2023-07-20T00:41:59;9.45;;;8.23;;
32152;SDS011;18656;50.580;11.392;2023-07-20T00:44:26;13.50;;;8.60;;
32152;SDS011;18656;50.580;11.392;2023-07-20T00:46:53;10.40;;;7.40;;
32152;SDS011;18656;50.580;11.392;2023-07-20T00:49:21;9.60;;;8.60;;
32152;SDS011;18656;50.580;11.392;2023-07-20T00:51:50;8.68;;;7.78;;
32152;SDS011;18656;50.580;11.392;2023-07-20T00:54:17;9.13;;;7.40;;
32152;SDS011;18656;50.580;11.392;2023-07-20T00:56:45;11.80;;;9.05;;
32152;SDS011;18656;50.580;11.392;2023-07-20T00:59:12;10.40;;;8.65;;
32152;SDS011;18656;50.580;11.392;2023-07-20T01:01:40;8.60;;;7.53;;
32152;SDS011;18656;50.580;11.392;2023-07-20T01:04:08;9.57;;;8.23;;
32152;SDS011;18656;50.580;11.392;2023-07-20T01:09:24;9.48;;;8.57;;
32152;SDS011;18656;50.580;11.392;2023-07-20T01:11:58;7.68;;;6.97;;
32152;SDS011;18656;50.580;11.392;2023-07-20T01:14:26;8.75;;;7.85;;
32152;SDS011;18656;50.580;11.392;2023-07-20T01:16:53;8.05;;;7.35;;
32152;SDS011;18656;50.580;11.392;2023-07-20T01:19:21;7.88;;;7.28;;
32152;SDS011;18656;50.580;11.392;2023-07-20T01:22:09;11.68;;;7.82;;
32152;SDS011;18656;50.580;11.392;2023-07-20T01:30:14;9.57;;;8.43;;
32152;SDS011;18656;50.580;11.392;2023-07-20T01:32:43;11.88;;;8.70;;
32152;SDS011;18656;50.580;11.392;2023-07-20T01:35:11;10.00;;;8.95;;
32152;SDS011;18656;50.580;11.392;2023-07-20T01:37:44;13.63;;;9.55;;
32152;SDS011;18656;50.580;11.392;2023-07-20T01:40:13;12.32;;;9.02;;
32152;SDS011;18656;50.580;11.392;2023-07-20T01:42:45;13.30;;;10.60;;
32152;SDS011;18656;50.580;11.392;2023-07-20T01:45:13;16.52;;;11.52;;
32152;SDS011;18656;50.580;11.392;2023-07-20T01:47:40;11.88;;;10.60;;
32152;SDS011;18656;50.580;11.392;2023-07-20T01:50:09;18.40;;;9.98;;
32152;SDS011;18656;50.580;11.392;2023-07-20T01:52:36;12.52;;;9.35;;
32152;SDS011;18656;50.580;11.392;2023-07-20T01:55:03;10.60;;;8.70;;
32152;SDS011;18656;50.580;11.392;2023-07-20T01:57:31;14.70;;;10.15;;
32152;SDS011;18656;50.580;11.392;2023-07-20T01:59:58;16.98;;;12.02;;
32152;SDS011;18656;50.580;11.392;2023-07-20T02:02:26;14.27;;;8.63;;
32152;SDS011;18656;50.580;11.392;2023-07-20T02:04:57;12.32;;;9.77;;
32152;SDS011;18656;50.580;11.392;2023-07-20T02:07:24;9.68;;;8.13;;
32152;SDS011;18656;50.580;11.392;2023-07-20T02:09:52;9.25;;;8.02;;
32152;SDS011;18656;50.580;11.392;2023-07-20T02:12:19;9.43;;;8.60;;
32152;SDS011;18656;50.580;11.392;2023-07-20T02:14:46;12.15;;;7.50;;
32152;SDS011;18656;50.580;11.392;2023-07-20T02:17:14;15.55;;;10.13;;
32152;SDS011;18656;50.580;11.392;2023-07-20T02:19:41;8.98;;;7.53;;
32152;SDS011;18656;50.580;11.392;2023-07-20T02:22:08;9.65;;;8.55;;
32152;SDS011;18656;50.580;11.392;2023-07-20T02:24:36;11.25;;;7.95;;
32152;SDS011;18656;50.580;11.392;2023-07-20T02:27:03;6.90;;;6.10;;
32152;SDS011;18656;50.580;11.392;2023-07-20T02:29:30;12.68;;;8.95;;
32152;SDS011;18656;50.580;11.392;2023-07-20T02:31:58;8.70;;;7.85;;
32152;SDS011;18656;50.580;11.392;2023-07-20T02:34:25;9.02;;;7.28;;
32152;SDS011;18656;50.580;11.392;2023-07-20T02:36:52;10.27;;;8.95;;
32152;SDS011;18656;50.580;11.392;2023-07-20T02:39:22;10.50;;;7.22;;
32152;SDS011;18656;50.580;11.392;2023-07-20T02:41:49;7.63;;;6.85;;
32152;SDS011;18656;50.580;11.392;2023-07-20T02:44:16;10.88;;;7.78;;
32152;SDS011;18656;50.580;11.392;2023-07-20T02:46:43;8.30;;;7.45;;
32152;SDS011;18656;50.580;11.392;2023-07-20T02:49:11;13.25;;;9.20;;
32152;SDS011;18656;50.580;11.392;2023-07-20T02:51:38;10.57;;;8.63;;
32152;SDS011;18656;50.580;11.392;2023-07-20T02:54:05;11.63;;;8.98;;
32152;SDS011;18656;50.580;11.392;2023-07-20T02:56:32;9.10;;;8.25;;
32152;SDS011;18656;50.580;11.392;2023-07-20T02:59:01;13.13;;;9.02;;
32152;SDS011;18656;50.580;11.392;2023-07-20T03:01:28;8.63;;;7.32;;
32152;SDS011;18656;50.580;11.392;2023-07-20T03:03:56;8.63;;;7.13;;
32152;SDS011;18656;50.580;11.392;2023-07-20T03:06:23;10.30;;;7.88;;
32152;SDS011;18656;50.580;11.392;2023-07-20T03:08:51;9.60;;;8.25;;
32152;SDS011;18656;50.580;11.392;2023-07-20T03:11:20;11.95;;;8.40;;
32152;SDS011;18656;50.580;11.392;2023-07-20T03:13:47;12.20;;;9.18;;
32152;SDS011;18656;50.580;11.392;2023-07-20T03:16:18;12.13;;;9.95;;
32152;SDS011;18656;50.580;11.392;2023-07-20T03:18:47;12.65;;;9.63;;
32152;SDS011;18656;50.580;11.392;2023-07-20T03:21:14;13.95;;;10.25;;
32152;SDS011;18656;50.580;11.392;2023-07-20T03:23:41;10.88;;;8.80;;
32152;SDS011;18656;50.580;11.392;2023-07-20T03:26:09;10.57;;;8.43;;
32152;SDS011;18656;50.580;11.392;2023-07-20T03:28:36;10.68;;;8.25;;
32152;SDS011;18656;50.580;11.392;2023-07-20T03:31:04;14.95;;;7.55;;
32152;SDS011;18656;50.580;11.392;2023-07-20T03:33:32;9.90;;;8.10;;
32152;SDS011;18656;50.580;11.392;2023-07-20T03:35:59;10.00;;;7.82;;
32152;SDS011;18656;50.580;11.392;2023-07-20T03:38:27;17.20;;;9.05;;
32152;SDS011;18656;50.580;11.392;2023-07-20T03:40:56;8.70;;;7.90;;
32152;SDS011;18656;50.580;11.392;2023-07-20T03:43:24;11.30;;;8.40;;
32152;SDS011;18656;50.580;11.392;2023-07-20T03:45:52;13.90;;;9.07;;
32152;SDS011;18656;50.580;11.392;2023-07-20T03:48:20;11.52;;;9.82;;
32152;SDS011;18656;50.580;11.392;2023-07-20T03:50:48;9.30;;;8.43;;
32152;SDS011;18656;50.580;11.392;2023-07-20T03:53:16;13.45;;;11.25;;
32152;SDS011;18656;50.580;11.392;2023-07-20T03:55:46;15.30;;;11.02;;
32152;SDS011;18656;50.580;11.392;2023-07-20T03:58:14;8.55;;;7.60;;
32152;SDS011;18656;50.580;11.392;2023-07-20T04:00:45;9.75;;;8.32;;
32152;SDS011;18656;50.580;11.392;2023-07-20T04:03:13;13.07;;;10.55;;
32152;SDS011;18656;50.580;11.392;2023-07-20T04:05:41;12.43;;;10.93;;
32152;SDS011;18656;50.580;11.392;2023-07-20T04:08:09;10.38;;;9.43;;
32152;SDS011;18656;50.580;11.392;2023-07-20T04:10:37;11.73;;;10.63;;
32152;SDS011;18656;50.580;11.392;2023-07-20T04:13:05;10.00;;;8.30;;
32152;SDS011;18656;50.580;11.392;2023-07-20T04:15:33;8.55;;;7.65;;
32152;SDS011;18656;50.580;11.392;2023-07-20T04:18:00;11.85;;;9.88;;
32152;SDS011;18656;50.580;11.392;2023-07-20T04:20:27;9.88;;;8.98;;
32152;SDS011;18656;50.580;11.392;2023-07-20T04:22:54;12.20;;;10.90;;
32152;SDS011;18656;50.580;11.392;2023-07-20T04:25:22;10.23;;;8.52;;
32152;SDS011;18656;50.580;11.392;2023-07-20T04:27:49;16.13;;;13.02;;
32152;SDS011;18656;50.580;11.392;2023-07-20T04:30:18;15.95;;;12.52;;
32152;SDS011;18656;50.580;11.392;2023-07-20T04:32:49;12.20;;;9.38;;
32152;SDS011;18656;50.580;11.392;2023-07-20T04:38:02;13.35;;;11.07;;
32152;SDS011;18656;50.580;11.392;2023-07-20T04:40:29;11.13;;;9.95;;
32152;SDS011;18656;50.580;11.392;2023-07-20T04:42:56;13.25;;;8.98;;
32152;SDS011;18656;50.580;11.392;2023-07-20T04:45:23;10.00;;;8.65;;
32152;SDS011;18656;50.580;11.392;2023-07-20T04:47:51;9.10;;;7.18;;
32152;SDS011;18656;50.580;11.392;2023-07-20T04:50:18;10.43;;;6.60;;
32152;SDS011;18656;50.580;11.392;2023-07-20T04:52:45;5.95;;;5.43;;
32152;SDS011;18656;50.580;11.392;2023-07-20T04:55:14;6.90;;;6.18;;
32152;SDS011;18656;50.580;11.392;2023-07-20T04:57:41;10.27;;;6.85;;
32152;SDS011;18656;50.580;11.392;2023-07-20T05:00:09;13.15;;;8.80;;
32152;SDS011;18656;50.580;11.392;2023-07-20T05:02:37;8.20;;;5.57;;
32152;SDS011;18656;50.580;11.392;2023-07-20T05:05:05;5.32;;;4.85;;
32152;SDS011;18656;50.580;11.392;2023-07-20T05:07:32;10.95;;;7.70;;
32152;SDS011;18656;50.580;11.392;2023-07-20T05:09:59;7.07;;;6.05;;
32152;SDS011;18656;50.580;11.392;2023-07-20T05:12:27;5.35;;;4.85;;
32152;SDS011;18656;50.580;11.392;2023-07-20T05:14:54;5.95;;;5.43;;
32152;SDS011;18656;50.580;11.392;2023-07-20T05:17:21;10.70;;;7.28;;
32152;SDS011;18656;50.580;11.392;2023-07-20T05:19:48;8.60;;;6.85;;
32152;SDS011;18656;50.580;11.392;2023-07-20T05:22:16;9.30;;;8.07;;
32152;SDS011;18656;50.580;11.392;2023-07-20T05:24:43;11.60;;;6.65;;
32152;SDS011;18656;50.580;11.392;2023-07-20T05:27:10;8.85;;;7.25;;
32152;SDS011;18656;50.580;11.392;2023-07-20T05:29:43;7.80;;;7.00;;
32152;SDS011;18656;50.580;11.392;2023-07-20T05:32:10;7.32;;;6.53;;
32152;SDS011;18656;50.580;11.392;2023-07-20T05:34:37;7.10;;;6.47;;
32152;SDS011;18656;50.580;11.392;2023-07-20T05:37:04;9.75;;;8.75;;
32152;SDS011;18656;50.580;11.392;2023-07-20T05:39:32;10.43;;;7.90;;
32152;SDS011;18656;50.580;11.392;2023-07-20T05:41:59;13.95;;;10.95;;
32152;SDS011;18656;50.580;11.392;2023-07-20T05:44:26;12.75;;;9.27;;
32152;SDS011;18656;50.580;11.392;2023-07-20T05:46:54;14.10;;;10.35;;
32152;SDS011;18656;50.580;11.392;2023-07-20T05:49:23;9.88;;;8.95;;
32152;SDS011;18656;50.580;11.392;2023-07-20T05:51:51;12.60;;;11.38;;
32152;SDS011;18656;50.580;11.392;2023-07-20T05:54:18;11.77;;;10.57;;
32152;SDS011;18656;50.580;11.392;2023-07-20T05:56:45;13.10;;;10.60;;
32152;SDS011;18656;50.580;11.392;2023-07-20T05:59:13;15.23;;;11.07;;
32152;SDS011;18656;50.580;11.392;2023-07-20T06:01:40;11.27;;;10.15;;
32152;SDS011;18656;50.580;11.392;2023-07-20T06:04:07;11.63;;;10.43;;
32152;SDS011;18656;50.580;11.392;2023-07-20T06:06:35;16.20;;;11.00;;
32152;SDS011;18656;50.580;11.392;2023-07-20T06:09:02;11.13;;;10.02;;
32152;SDS011;18656;50.580;11.392;2023-07-20T06:11:30;9.52;;;8.65;;
32152;SDS011;18656;50.580;11.392;2023-07-20T06:13:58;11.52;;;9.27;;
32152;SDS011;18656;50.580;11.392;2023-07-20T06:16:25;9.50;;;8.55;;
32152;SDS011;18656;50.580;11.392;2023-07-20T06:18:52;15.63;;;9.32;;
32152;SDS011;18656;50.580;11.392;2023-07-20T06:21:19;10.32;;;7.32;;
32152;SDS011;18656;50.580;11.392;2023-07-20T06:23:46;11.48;;;7.50;;
32152;SDS011;18656;50.580;11.392;2023-07-20T06:26:14;24.10;;;10.23;;
32152;SDS011;18656;50.580;11.392;2023-07-20T06:28:42;13.73;;;7.78;;
32152;SDS011;18656;50.580;11.392;2023-07-20T06:31:09;8.18;;;5.43;;
32152;SDS011;18656;50.580;11.392;2023-07-20T06:33:37;5.55;;;5.05;;
32152;SDS011;18656;50.580;11.392;2023-07-20T06:36:04;5.53;;;4.95;;
32152;SDS011;18656;50.580;11.392;2023-07-20T06:38:31;8.48;;;5.57;;
32152;SDS011;18656;50.580;11.392;2023-07-20T06:40:59;9.45;;;5.32;;
32152;SDS011;18656;50.580;11.392;2023-07-20T06:43:29;6.35;;;4.78;;
32152;SDS011;18656;50.580;11.392;2023-07-20T06:45:59;7.47;;;4.03;;
32152;SDS011;18656;50.580;11.392;2023-07-20T06:48:26;7.88;;;4.07;;
32152;SDS011;18656;50.580;11.392;2023-07-20T06:50:54;5.78;;;4.22;;
32152;SDS011;18656;50.580;11.392;2023-07-20T06:53:21;9.35;;;4.13;;
32152;SDS011;18656;50.580;11.392;2023-07-20T06:55:48;5.25;;;3.70;;
32152;SDS011;18656;50.580;11.392;2023-07-20T06:58:16;9.00;;;4.78;;
32152;SDS011;18656;50.580;11.392;2023-07-20T07:00:45;16.20;;;6.38;;
32152;SDS011;18656;50.580;11.392;2023-07-20T07:03:12;12.75;;;4.78;;
32152;SDS011;18656;50.580;11.392;2023-07-20T07:05:39;3.17;;;2.05;;
32152;SDS011;18656;50.580;11.392;2023-07-20T07:08:07;3.40;;;1.58;;
32152;SDS011;18656;50.580;11.392;2023-07-20T07:10:35;5.07;;;2.35;;
32152;SDS011;18656;50.580;11.392;2023-07-20T07:13:02;4.40;;;1.80;;
32152;SDS011;18656;50.580;11.392;2023-07-20T07:15:31;6.47;;;1.48;;
32152;SDS011;18656;50.580;11.392;2023-07-20T07:17:59;3.60;;;0.90;;
32152;SDS011;18656;50.580;11.392;2023-07-20T07:20:26;2.08;;;1.20;;
32152;SDS011;18656;50.580;11.392;2023-07-20T07:22:54;1.75;;;1.02;;
32152;SDS011;18656;50.580;11.392;2023-07-20T07:25:23;0.90;;;0.90;;
32152;SDS011;18656;50.580;11.392;2023-07-20T07:27:51;2.08;;;1.00;;
32152;SDS011;18656;50.580;11.392;2023-07-20T07:30:18;2.13;;;1.08;;
32152;SDS011;18656;50.580;11.392;2023-07-20T07:32:45;1.38;;;0.90;;
32152;SDS011;18656;50.580;11.392;2023-07-20T07:35:13;2.17;;;1.05;;
32152;SDS011;18656;50.580;11.392;2023-07-20T07:37:41;4.13;;;1.08;;
32152;SDS011;18656;50.580;11.392;2023-07-20T07:40:29;3.70;;;1.02;;
32152;SDS011;18656;50.580;11.392;2023-07-20T07:42:56;1.77;;;1.00;;
32152;SDS011;18656;50.580;11.392;2023-07-20T07:45:23;1.88;;;1.05;;
32152;SDS011;18656;50.580;11.392;2023-07-20T07:47:51;1.48;;;0.85;;
32152;SDS011;18656;50.580;11.392;2023-07-20T07:50:18;3.25;;;1.10;;
32152;SDS011;18656;50.580;11.392;2023-07-20T07:52:45;1.83;;;1.17;;
32152;SDS011;18656;50.580;11.392;2023-07-20T07:55:13;2.92;;;1.15;;
32152;SDS011;18656;50.580;11.392;2023-07-20T07:57:42;1.05;;;0.85;;
32152;SDS011;18656;50.580;11.392;2023-07-20T08:00:10;1.50;;;1.20;;
32152;SDS011;18656;50.580;11.392;2023-07-20T08:02:41;2.60;;;0.98;;
32152;SDS011;18656;50.580;11.392;2023-07-20T08:05:09;1.52;;;1.02;;
32152;SDS011;18656;50.580;11.392;2023-07-20T08:07:36;2.17;;;1.02;;
32152;SDS011;18656;50.580;11.392;2023-07-20T08:10:04;3.13;;;1.10;;
32152;SDS011;18656;50.580;11.392;2023-07-20T08:12:31;3.63;;;1.27;;
32152;SDS011;18656;50.580;11.392;2023-07-20T08:14:58;3.22;;;1.10;;
32152;SDS011;18656;50.580;11.392;2023-07-20T08:17:26;1.88;;;0.98;;
32152;SDS011;18656;50.580;11.392;2023-07-20T08:19:53;1.20;;;0.90;;
32152;SDS011;18656;50.580;11.392;2023-07-20T08:22:21;2.13;;;1.10;;
32152;SDS011;18656;50.580;11.392;2023-07-20T08:24:48;1.33;;;0.90;;
32152;SDS011;18656;50.580;11.392;2023-07-20T08:27:15;4.10;;;1.10;;
32152;SDS011;18656;50.580;11.392;2023-07-20T08:29:42;2.38;;;0.90;;
32152;SDS011;18656;50.580;11.392;2023-07-20T08:32:10;1.83;;;1.08;;
32152;SDS011;18656;50.580;11.392;2023-07-20T08:34:39;1.95;;;0.75;;
32152;SDS011;18656;50.580;11.392;2023-07-20T08:37:07;0.88;;;0.80;;
32152;SDS011;18656;50.580;11.392;2023-07-20T08:39:36;2.33;;;1.10;;
32152;SDS011;18656;50.580;11.392;2023-07-20T08:42:03;2.08;;;1.10;;
32152;SDS011;18656;50.580;11.392;2023-07-20T08:44:32;0.90;;;0.88;;
32152;SDS011;18656;50.580;11.392;2023-07-20T08:47:01;1.10;;;0.80;;
32152;SDS011;18656;50.580;11.392;2023-07-20T08:49:32;1.90;;;0.80;;
32152;SDS011;18656;50.580;11.392;2023-07-20T08:52:00;1.23;;;1.00;;
32152;SDS011;18656;50.580;11.392;2023-07-20T08:54:30;0.95;;;0.88;;
32152;SDS011;18656;50.580;11.392;2023-07-20T08:57:04;0.82;;;0.82;;
32152;SDS011;18656;50.580;11.392;2023-07-20T08:59:31;1.00;;;0.90;;
32152;SDS011;18656;50.580;11.392;2023-07-20T09:01:59;0.90;;;0.90;;
32152;SDS011;18656;50.580;11.392;2023-07-20T09:04:27;2.60;;;0.70;;
32152;SDS011;18656;50.580;11.392;2023-07-20T09:06:54;2.13;;;1.00;;
32152;SDS011;18656;50.580;11.392;2023-07-20T09:09:21;2.00;;;0.88;;
32152;SDS011;18656;50.580;11.392;2023-07-20T09:11:49;1.25;;;1.00;;
32152;SDS011;18656;50.580;11.392;2023-07-20T09:14:17;1.05;;;0.98;;
32152;SDS011;18656;50.580;11.392;2023-07-20T09:16:55;1.55;;;0.98;;
32152;SDS011;18656;50.580;11.392;2023-07-20T09:19:22;1.80;;;0.80;;
32152;SDS011;18656;50.580;11.392;2023-07-20T09:21:50;0.98;;;0.80;;
32152;SDS011;18656;50.580;11.392;2023-07-20T09:24:18;1.17;;;0.80;;
32152;SDS011;18656;50.580;11.392;2023-07-20T09:26:46;1.50;;;0.90;;
32152;SDS011;18656;50.580;11.392;2023-07-20T09:29:18;1.67;;;0.93;;
32152;SDS011;18656;50.580;11.392;2023-07-20T09:32:01;3.92;;;1.48;;
32152;SDS011;18656;50.580;11.392;2023-07-20T09:34:31;13.85;;;2.17;;
32152;SDS011;18656;50.580;11.392;2023-07-20T09:39:30;1.02;;;0.80;;
32152;SDS011;18656;50.580;11.392;2023-07-20T09:42:00;1.77;;;0.90;;
32152;SDS011;18656;50.580;11.392;2023-07-20T09:44:31;2.15;;;0.77;;
32152;SDS011;18656;50.580;11.392;2023-07-20T09:47:02;1.85;;;1.00;;
32152;SDS011;18656;50.580;11.392;2023-07-20T09:49:31;1.88;;;0.90;;
32152;SDS011;18656;50.580;11.392;2023-07-20T09:52:18;3.13;;;1.33;;
32152;SDS011;18656;50.580;11.392;2023-07-20T09:54:48;2.65;;;1.30;;
32152;SDS011;18656;50.580;11.392;2023-07-20T09:57:16;1.73;;;1.20;;
32152;SDS011;18656;50.580;11.392;2023-07-20T09:59:43;3.72;;;1.13;;
32152;SDS011;18656;50.580;11.392;2023-07-20T10:02:12;2.50;;;1.23;;
32152;SDS011;18656;50.580;11.392;2023-07-20T10:04:44;1.25;;;1.13;;
32152;SDS011;18656;50.580;11.392;2023-07-20T10:07:11;4.07;;;1.30;;
32152;SDS011;18656;50.580;11.392;2023-07-20T10:09:39;5.07;;;1.30;;
32152;SDS011;18656;50.580;11.392;2023-07-20T10:12:07;1.17;;;1.08;;
32152;SDS011;18656;50.580;11.392;2023-07-20T10:14:44;1.58;;;0.90;;
32152;SDS011;18656;50.580;11.392;2023-07-20T10:17:15;2.17;;;0.90;;
32152;SDS011;18656;50.580;11.392;2023-07-20T10:19:47;3.47;;;1.20;;
32152;SDS011;18656;50.580;11.392;2023-07-20T10:22:25;1.02;;;0.95;;
32152;SDS011;18656;50.580;11.392;2023-07-20T10:24:53;1.05;;;0.98;;
32152;SDS011;18656;50.580;11.392;2023-07-20T10:27:20;2.05;;;0.82;;
32152;SDS011;18656;50.580;11.392;2023-07-20T10:29:48;1.58;;;1.00;;
32152;SDS011;18656;50.580;11.392;2023-07-20T10:32:15;1.63;;;1.10;;
32152;SDS011;18656;50.580;11.392;2023-07-20T10:34:42;2.80;;;0.90;;
32152;SDS011;18656;50.580;11.392;2023-07-20T10:37:10;2.65;;;1.10;;
32152;SDS011;18656;50.580;11.392;2023-07-20T10:39:37;1.40;;;1.00;;
32152;SDS011;18656;50.580;11.392;2023-07-20T10:42:07;1.00;;;0.73;;
32152;SDS011;18656;50.580;11.392;2023-07-20T10:44:38;2.25;;;0.90;;
32152;SDS011;18656;50.580;11.392;2023-07-20T10:47:09;1.92;;;1.10;;
32152;SDS011;18656;50.580;11.392;2023-07-20T10:52:24;2.55;;;0.80;;
32152;SDS011;18656;50.580;11.392;2023-07-20T10:54:51;3.20;;;1.08;;
32152;SDS011;18656;50.580;11.392;2023-07-20T10:57:23;2.67;;;0.95;;
32152;SDS011;18656;50.580;11.392;2023-07-20T10:59:51;2.78;;;1.10;;
32152;SDS011;18656;50.580;11.392;2023-07-20T11:02:18;3.08;;;0.98;;
32152;SDS011;18656;50.580;11.392;2023-07-20T11:04:47;1.48;;;0.90;;
32152;SDS011;18656;50.580;11.392;2023-07-20T11:07:16;2.63;;;0.90;;
32152;SDS011;18656;50.580;11.392;2023-07-20T11:09:44;0.90;;;0.90;;
32152;SDS011;18656;50.580;11.392;2023-07-20T11:12:15;3.00;;;0.98;;
32152;SDS011;18656;50.580;11.392;2023-07-20T11:14:44;3.13;;;0.85;;
32152;SDS011;18656;50.580;11.392;2023-07-20T11:17:20;1.02;;;0.68;;
32152;SDS011;18656;50.580;11.392;2023-07-20T11:19:48;0.60;;;0.60;;
32152;SDS011;18656;50.580;11.392;2023-07-20T11:22:19;2.83;;;1.10;;
32152;SDS011;18656;50.580;11.392;2023-07-20T11:24:46;0.82;;;0.82;;
32152;SDS011;18656;50.580;11.392;2023-07-20T11:27:15;2.78;;;0.93;;
32152;SDS011;18656;50.580;11.392;2023-07-20T11:29:45;1.48;;;1.00;;
32152;SDS011;18656;50.580;11.392;2023-07-20T11:32:12;6.45;;;1.10;;
32152;SDS011;18656;50.580;11.392;2023-07-20T11:34:39;1.23;;;0.90;;
32152;SDS011;18656;50.580;11.392;2023-07-20T11:37:06;5.60;;;1.17;;
32152;SDS011;18656;50.580;11.392;2023-07-20T11:39:36;2.15;;;1.02;;
32152;SDS011;18656;50.580;11.392;2023-07-20T11:42:04;1.55;;;1.08;;
32152;SDS011;18656;50.580;11.392;2023-07-20T11:44:32;1.65;;;1.10;;
32152;SDS011;18656;50.580;11.392;2023-07-20T11:47:00;4.63;;;1.10;;
32152;SDS011;18656;50.580;11.392;2023-07-20T11:49:29;1.67;;;1.00;;
32152;SDS011;18656;50.580;11.392;2023-07-20T11:52:00;1.95;;;1.30;;
32152;SDS011;18656;50.580;11.392;2023-07-20T11:54:27;2.30;;;1.38;;
32152;SDS011;18656;50.580;11.392;2023-07-20T11:56:54;3.40;;;1.27;;
32152;SDS011;18656;50.580;11.392;2023-07-20T11:59:22;1.45;;;1.25;;
32152;SDS011;18656;50.580;11.392;2023-07-20T12:01:50;4.07;;;1.40;;
32152;SDS011;18656;50.580;11.392;2023-07-20T12:04:17;2.67;;;1.20;;
32152;SDS011;18656;50.580;11.392;2023-07-20T12:06:45;2.20;;;1.10;;
32152;SDS011;18656;50.580;11.392;2023-07-20T12:09:16;1.40;;;1.30;;
32152;SDS011;18656;50.580;11.392;2023-07-20T12:11:44;1.00;;;1.00;;
32152;SDS011;18656;50.580;11.392;2023-07-20T12:14:11;0.82;;;0.82;;
32152;SDS011;18656;50.580;11.392;2023-07-20T12:16:43;2.20;;;0.70;;
32152;SDS011;18656;50.580;11.392;2023-07-20T12:19:11;3.55;;;0.75;;
32152;SDS011;18656;50.580;11.392;2023-07-20T12:21:42;1.05;;;0.50;;
32152;SDS011;18656;50.580;11.392;2023-07-20T12:24:10;2.90;;;0.88;;
32152;SDS011;18656;50.580;11.392;2023-07-20T12:26:38;0.90;;;0.90;;
32152;SDS011;18656;50.580;11.392;2023-07-20T12:29:05;1.05;;;0.82;;
32152;SDS011;18656;50.580;11.392;2023-07-20T12:31:33;1.77;;;0.80;;
32152;SDS011;18656;50.580;11.392;2023-07-20T12:34:02;1.90;;;0.90;;
32152;SDS011;18656;50.580;11.392;2023-07-20T12:36:29;1.20;;;1.10;;
32152;SDS011;18656;50.580;11.392;2023-07-20T12:38:57;1.55;;;1.10;;
32152;SDS011;18656;50.580;11.392;2023-07-20T12:41:25;0.90;;;0.90;;
32152;SDS011;18656;50.580;11.392;2023-07-20T12:43:52;0.70;;;0.70;;
32152;SDS011;18656;50.580;11.392;2023-07-20T12:46:20;0.95;;;0.95;;
32152;SDS011;18656;50.580;11.392;2023-07-20T12:48:49;1.00;;;1.00;;
32152;SDS011;18656;50.580;11.392;2023-07-20T12:51:16;1.80;;;0.80;;
32152;SDS011;18656;50.580;11.392;2023-07-20T12:53:44;1.15;;;1.15;;
32152;SDS011;18656;50.580;11.392;2023-07-20T12:56:11;1.13;;;0.88;;
32152;SDS011;18656;50.580;11.392;2023-07-20T12:58:41;0.80;;;0.80;;
32152;SDS011;18656;50.580;11.392;2023-07-20T13:01:08;2.20;;;1.20;;
32152;SDS011;18656;50.580;11.392;2023-07-20T13:03:36;0.98;;;0.98;;
32152;SDS011;18656;50.580;11.392;2023-07-20T13:06:23;6.53;;;1.30;;
32152;SDS011;18656;50.580;11.392;2023-07-20T13:08:54;8.00;;;1.25;;
32152;SDS011;18656;50.580;11.392;2023-07-20T13:11:23;1.27;;;1.20;;
32152;SDS011;18656;50.580;11.392;2023-07-20T13:13:50;1.73;;;1.02;;
32152;SDS011;18656;50.580;11.392;2023-07-20T13:16:18;0.90;;;0.90;;
32152;SDS011;18656;50.580;11.392;2023-07-20T13:18:45;0.85;;;0.85;;
32152;SDS011;18656;50.580;11.392;2023-07-20T13:21:12;1.00;;;1.00;;
32152;SDS011;18656;50.580;11.392;2023-07-20T13:23:39;1.10;;;1.10;;
32152;SDS011;18656;50.580;11.392;2023-07-20T13:26:07;2.85;;;0.90;;
32152;SDS011;18656;50.580;11.392;2023-07-20T13:28:34;1.05;;;0.93;;
32152;SDS011;18656;50.580;11.392;2023-07-20T13:31:03;0.80;;;0.80;;
32152;SDS011;18656;50.580;11.392;2023-07-20T13:33:30;4.15;;;1.05;;
32152;SDS011;18656;50.580;11.392;2023-07-20T13:36:05;2.33;;;0.80;;
32152;SDS011;18656;50.580;11.392;2023-07-20T13:38:34;0.98;;;0.80;;
32152;SDS011;18656;50.580;11.392;2023-07-20T13:41:02;1.50;;;1.10;;
32152;SDS011;18656;50.580;11.392;2023-07-20T13:43:29;0.90;;;0.90;;
32152;SDS011;18656;50.580;11.392;2023-07-20T13:45:56;0.80;;;0.80;;
32152;SDS011;18656;50.580;11.392;2023-07-20T13:48:24;1.50;;;1.10;;
32152;SDS011;18656;50.580;11.392;2023-07-20T13:50:53;1.45;;;0.88;;
32152;SDS011;18656;50.580;11.392;2023-07-20T13:53:24;0.90;;;0.90;;
32152;SDS011;18656;50.580;11.392;2023-07-20T13:55:54;1.02;;;0.93;;
32152;SDS011;18656;50.580;11.392;2023-07-20T13:58:26;1.85;;;0.90;;
32152;SDS011;18656;50.580;11.392;2023-07-20T14:00:53;1.35;;;0.82;;
32152;SDS011;18656;50.580;11.392;2023-07-20T14:03:21;0.98;;;0.98;;
32152;SDS011;18656;50.580;11.392;2023-07-20T14:05:49;0.77;;;0.77;;
32152;SDS011;18656;50.580;11.392;2023-07-20T14:08:20;1.17;;;1.17;;
32152;SDS011;18656;50.580;11.392;2023-07-20T14:10:47;2.28;;;0.90;;
32152;SDS011;18656;50.580;11.392;2023-07-20T14:13:17;1.40;;;0.60;;
32152;SDS011;18656;50.580;11.392;2023-07-20T14:15:49;2.08;;;0.63;;
32152;SDS011;18656;50.580;11.392;2023-07-20T14:18:17;2.10;;;0.90;;
32152;SDS011;18656;50.580;11.392;2023-07-20T14:20:45;0.63;;;0.63;;
32152;SDS011;18656;50.580;11.392;2023-07-20T14:23:12;1.13;;;0.80;;
32152;SDS011;18656;50.580;11.392;2023-07-20T14:25:40;3.42;;;1.10;;
32152;SDS011;18656;50.580;11.392;2023-07-20T14:28:07;1.10;;;1.00;;
32152;SDS011;18656;50.580;11.392;2023-07-20T14:30:35;1.05;;;0.80;;
32152;SDS011;18656;50.580;11.392;2023-07-20T14:33:02;1.63;;;0.90;;
32152;SDS011;18656;50.580;11.392;2023-07-20T14:35:29;1.30;;;1.20;;
32152;SDS011;18656;50.580;11.392;2023-07-20T14:37:57;1.13;;;1.00;;
32152;SDS011;18656;50.580;11.392;2023-07-20T14:40:24;2.00;;;1.13;;
32152;SDS011;18656;50.580;11.392;2023-07-20T14:42:51;1.95;;;1.40;;
32152;SDS011;18656;50.580;11.392;2023-07-20T14:45:19;1.67;;;0.90;;
32152;SDS011;18656;50.580;11.392;2023-07-20T14:47:46;1.00;;;0.80;;
32152;SDS011;18656;50.580;11.392;2023-07-20T14:52:47;1.42;;;1.10;;